createdAt,value
2019-04-05T00:01:03.866Z,11.53
2019-04-05T00:03:35.642Z,11.63
2019-04-05T00:06:07.413Z,14.77
2019-04-05T00:08:39.282Z,13.93
2019-04-05T00:11:11.718Z,13.25
2019-04-05T00:13:43.591Z,13.93
2019-04-05T00:16:15.645Z,12.37
2019-04-05T00:18:47.720Z,14.27
2019-04-05T00:21:19.515Z,12.88
2019-04-05T00:23:51.223Z,7.70
2019-04-05T00:26:22.911Z,15.23
2019-04-05T00:28:55.064Z,14.27
2019-04-05T00:31:26.805Z,15.43
2019-04-05T00:33:59.563Z,15.53
2019-04-05T00:36:31.648Z,15.97
2019-04-05T00:39:04.065Z,19.10
2019-04-05T00:41:36.390Z,16.40
2019-04-05T00:44:08.229Z,9.20
2019-04-05T00:46:40.018Z,11.10
2019-04-05T00:49:11.719Z,16.70
2019-04-05T00:51:43.849Z,15.88
2019-04-05T00:54:15.914Z,15.20
2019-04-05T00:56:47.773Z,12.70
2019-04-05T00:59:19.635Z,6.60
2019-04-05T01:01:51.754Z,11.63
2019-04-05T01:04:23.795Z,15.90
2019-04-05T01:06:55.636Z,18.07
2019-04-05T01:09:27.434Z,10.00
2019-04-05T01:11:59.216Z,16.20
2019-04-05T01:14:31.110Z,13.30
2019-04-05T01:17:02.869Z,11.87
2019-04-05T01:19:36.556Z,17.87
2019-04-05T01:22:10.643Z,15.53
2019-04-05T01:24:42.921Z,13.70
2019-04-05T01:27:15.516Z,15.50
2019-04-05T01:29:47.379Z,15.47
2019-04-05T01:32:20.070Z,17.67
2019-04-05T01:34:51.864Z,17.63
2019-04-05T01:37:24.209Z,13.90
2019-04-05T01:39:56.062Z,16.43
2019-04-05T01:42:28.109Z,17.73
2019-04-05T01:45:00.295Z,16.77
2019-04-05T01:47:32.116Z,17.03
2019-04-05T01:50:06.159Z,17.10
2019-04-05T01:52:38.221Z,18.30
2019-04-05T01:55:10.157Z,15.63
2019-04-05T01:57:41.922Z,11.10
2019-04-05T02:00:14.595Z,14.87
2019-04-05T02:02:46.590Z,18.33
2019-04-05T02:05:18.611Z,15.93
2019-04-05T02:07:50.695Z,14.73
2019-04-05T02:10:22.875Z,15.48
2019-04-05T02:12:54.863Z,19.30
2019-04-05T02:15:32.055Z,17.90
2019-04-05T02:18:03.888Z,10.73
2019-04-05T02:20:35.847Z,12.17
2019-04-05T02:23:07.618Z,16.40
2019-04-05T02:25:39.480Z,17.50
2019-04-05T02:28:12.024Z,16.60
2019-04-05T02:30:43.923Z,16.37
2019-04-05T02:33:16.608Z,20.07
2019-04-05T02:35:48.553Z,31.77
2019-04-05T02:38:20.328Z,20.27
2019-04-05T02:40:53.472Z,12.80
2019-04-05T02:43:28.258Z,13.40
2019-04-05T02:46:01.095Z,19.37
2019-04-05T02:48:35.959Z,20.88
2019-04-05T02:51:10.163Z,20.70
2019-04-05T02:53:42.644Z,17.90
2019-04-05T02:56:14.920Z,18.80
2019-04-05T02:58:47.450Z,11.33
2019-04-05T03:01:22.623Z,17.57
2019-04-05T03:03:53.276Z,18.60
2019-04-05T03:06:25.538Z,19.43
2019-04-05T03:08:58.113Z,16.00
2019-04-05T03:11:33.825Z,19.00
2019-04-05T03:14:06.521Z,18.43
2019-04-05T03:16:42.390Z,18.63
2019-04-05T03:19:22.705Z,15.60
2019-04-05T03:22:02.183Z,17.67
2019-04-05T03:24:37.373Z,17.90
2019-04-05T03:27:17.452Z,14.20
2019-04-05T03:29:49.471Z,15.27
2019-04-05T03:32:21.464Z,12.20
2019-04-05T03:34:54.261Z,13.10
2019-04-05T03:37:26.742Z,37.63
2019-04-05T03:39:58.789Z,20.63
2019-04-05T03:42:32.112Z,12.80
2019-04-05T03:45:04.153Z,16.47
2019-04-05T03:47:36.123Z,15.17
2019-04-05T03:50:09.172Z,17.30
2019-04-05T03:52:41.656Z,13.47
2019-04-05T03:55:13.841Z,15.23
2019-04-05T03:57:45.999Z,15.75
2019-04-05T04:00:17.968Z,8.25
2019-04-05T04:02:50.270Z,38.57
2019-04-05T04:05:22.331Z,19.23
2019-04-05T04:07:54.389Z,19.20
2019-04-05T04:10:28.657Z,19.35
2019-04-05T04:13:00.747Z,15.77
2019-04-05T04:15:34.909Z,16.53
2019-04-05T04:18:07.756Z,15.47
2019-04-05T04:20:48.668Z,15.13
2019-04-05T04:23:21.946Z,14.85
2019-04-05T04:25:55.328Z,13.10
2019-04-05T04:28:27.755Z,17.67
2019-04-05T04:31:00.065Z,15.87
2019-04-05T04:33:32.060Z,15.03
2019-04-05T04:36:04.178Z,16.57
2019-04-05T04:38:36.078Z,16.73
2019-04-05T04:41:08.861Z,14.50
2019-04-05T04:43:41.132Z,11.07
2019-04-05T04:46:13.523Z,13.67
2019-04-05T04:48:46.478Z,13.43
2019-04-05T04:51:19.379Z,13.58
2019-04-05T04:53:52.419Z,9.87
2019-04-05T04:56:24.875Z,15.03
2019-04-05T04:58:56.898Z,15.97
2019-04-05T05:01:29.078Z,18.45
2019-04-05T05:04:01.014Z,17.03
2019-04-05T05:06:32.915Z,16.47
2019-04-05T05:09:07.641Z,15.03
2019-04-05T05:11:39.736Z,15.57
2019-04-05T05:14:12.098Z,16.27
2019-04-05T05:16:44.653Z,16.77
2019-04-05T05:19:16.552Z,17.80
2019-04-05T05:21:49.615Z,16.83
2019-04-05T05:24:22.040Z,14.85
2019-04-05T05:26:53.859Z,13.37
2019-04-05T05:29:25.948Z,15.40
2019-04-05T05:31:57.865Z,15.60
2019-04-05T05:34:29.742Z,14.97
2019-04-05T05:37:01.631Z,18.17
2019-04-05T05:39:33.436Z,17.42
2019-04-05T05:42:05.345Z,14.87
2019-04-05T05:44:37.185Z,15.77
2019-04-05T05:47:09.083Z,16.33
2019-04-05T05:49:40.975Z,14.83
2019-04-05T05:52:12.895Z,16.97
2019-04-05T05:54:44.631Z,16.57
2019-04-05T05:57:16.458Z,22.17
2019-04-05T05:59:48.227Z,16.63
2019-04-05T06:02:20.031Z,16.90
2019-04-05T06:04:51.790Z,16.20
2019-04-05T06:07:23.547Z,16.65
2019-04-05T06:09:55.295Z,18.23
2019-04-05T06:12:27.106Z,13.88
2019-04-05T06:14:58.849Z,15.68
2019-04-05T06:17:30.658Z,16.90
2019-04-05T06:20:02.872Z,17.30
2019-04-05T06:22:35.261Z,17.27
2019-04-05T06:25:07.575Z,16.23
2019-04-05T06:27:39.321Z,17.07
2019-04-05T06:30:11.752Z,16.50
2019-04-05T06:32:43.644Z,16.80
2019-04-05T06:35:15.547Z,16.70
2019-04-05T06:37:47.296Z,17.13
2019-04-05T06:40:19.178Z,16.70
2019-04-05T06:42:50.919Z,17.30
2019-04-05T06:45:22.817Z,16.42
2019-04-05T06:47:54.640Z,15.33
2019-04-05T06:50:26.382Z,19.42
2019-04-05T06:52:58.569Z,16.87
2019-04-05T06:55:30.313Z,16.33
2019-04-05T06:58:02.054Z,15.93
2019-04-05T07:00:33.784Z,14.83
2019-04-05T07:03:05.668Z,15.50
2019-04-05T07:05:37.559Z,14.83
2019-04-05T07:08:09.316Z,14.03
2019-04-05T07:10:41.365Z,14.30
2019-04-05T07:13:13.093Z,14.43
2019-04-05T07:15:44.897Z,14.87
2019-04-05T07:18:16.945Z,13.80
2019-04-05T07:20:49.226Z,14.37
2019-04-05T07:23:21.069Z,14.40
2019-04-05T07:25:52.875Z,14.70
2019-04-05T07:28:25.231Z,13.45
2019-04-05T07:30:57.131Z,13.83
2019-04-05T07:33:29.186Z,13.83
2019-04-05T07:36:03.370Z,13.37
2019-04-05T07:38:34.339Z,14.37
2019-04-05T07:41:06.170Z,13.37
2019-04-05T07:43:38.001Z,14.47
2019-04-05T07:46:09.745Z,15.37
2019-04-05T07:48:45.023Z,15.20
2019-04-05T07:51:15.434Z,14.47
2019-04-05T07:53:47.179Z,14.57
2019-04-05T07:56:18.906Z,13.80
2019-04-05T07:58:50.715Z,13.53
2019-04-05T08:01:23.671Z,13.65
2019-04-05T08:03:58.025Z,14.63
2019-04-05T08:06:30.481Z,14.55
2019-04-05T08:09:14.075Z,12.37
2019-04-05T08:11:46.651Z,11.93
2019-04-05T08:14:19.788Z,14.13
2019-04-05T08:16:51.764Z,12.07
2019-04-05T08:19:23.661Z,13.35
2019-04-05T08:21:55.469Z,13.93
2019-04-05T08:24:27.607Z,13.57
2019-04-05T08:26:59.512Z,13.43
2019-04-05T08:29:31.349Z,13.50
2019-04-05T08:32:13.998Z,13.80
2019-04-05T08:34:36.683Z,15.10
2019-04-05T08:37:08.500Z,13.07
2019-04-05T08:39:40.231Z,13.93
2019-04-05T08:42:12.064Z,13.47
2019-04-05T08:44:43.874Z,13.23
2019-04-05T08:47:15.812Z,13.87
2019-04-05T08:49:47.663Z,13.10
2019-04-05T08:52:19.402Z,13.90
2019-04-05T08:54:51.146Z,13.23
2019-04-05T08:57:22.884Z,12.85
2019-04-05T08:59:54.634Z,13.90
2019-04-05T09:02:26.348Z,14.07
2019-04-05T09:04:58.262Z,13.77
2019-04-05T09:07:29.990Z,14.07
2019-04-05T09:10:01.755Z,13.30
2019-04-05T09:12:33.777Z,12.87
2019-04-05T09:15:05.931Z,12.57
2019-04-05T09:17:37.740Z,13.33
2019-04-05T09:20:09.641Z,13.83
2019-04-05T09:22:41.360Z,12.83
2019-04-05T09:25:13.188Z,12.67
2019-04-05T09:27:44.928Z,11.80
2019-04-05T09:30:16.917Z,12.28
2019-04-05T09:32:48.732Z,11.57
2019-04-05T09:35:20.471Z,10.98
2019-04-05T09:37:52.213Z,11.97
2019-04-05T09:40:24.124Z,10.75
2019-04-05T09:42:55.960Z,11.57
2019-04-05T09:45:27.903Z,12.82
2019-04-05T09:48:00.046Z,11.30
2019-04-05T09:50:32.172Z,11.43
2019-04-05T09:53:03.964Z,11.37
2019-04-05T09:55:35.857Z,12.10
2019-04-05T09:58:10.059Z,12.13
2019-04-05T10:00:41.522Z,11.10
2019-04-05T10:03:13.319Z,11.87
2019-04-05T10:05:45.053Z,12.53
2019-04-05T10:08:16.780Z,12.03
2019-04-05T10:10:48.784Z,12.67
2019-04-05T10:13:20.853Z,12.65
2019-04-05T10:15:52.666Z,12.13
2019-04-05T10:18:24.392Z,12.03
2019-04-05T10:20:56.231Z,12.17
2019-04-05T10:23:28.017Z,12.33
2019-04-05T10:25:59.933Z,11.27
2019-04-05T10:28:31.667Z,11.43
2019-04-05T10:31:03.772Z,13.63
2019-04-05T10:33:35.481Z,12.60
2019-04-05T10:36:07.300Z,11.10
2019-04-05T10:38:39.389Z,10.60
2019-04-05T10:41:11.820Z,12.30
2019-04-05T10:43:44.303Z,10.30
2019-04-05T10:46:16.050Z,14.13
2019-04-05T10:48:47.775Z,13.50
2019-04-05T10:51:19.587Z,11.88
2019-04-05T10:53:51.319Z,11.73
2019-04-05T10:56:23.361Z,12.47
2019-04-05T10:58:55.167Z,12.63
2019-04-05T11:01:28.045Z,10.30
2019-04-05T11:03:59.770Z,11.53
2019-04-05T11:06:31.553Z,13.10
2019-04-05T11:09:04.287Z,12.30
2019-04-05T11:11:36.344Z,12.10
2019-04-05T11:14:14.066Z,12.27
2019-04-05T11:16:41.724Z,12.43
2019-04-05T11:19:13.898Z,10.97
2019-04-05T11:21:47.859Z,10.57
2019-04-05T11:24:19.083Z,11.25
2019-04-05T11:26:51.858Z,10.77
2019-04-05T11:29:23.591Z,11.45
2019-04-05T11:31:57.459Z,10.70
2019-04-05T11:34:28.897Z,14.65
2019-04-05T11:37:03.032Z,13.77
2019-04-05T11:39:34.958Z,13.85
2019-04-05T11:42:06.939Z,11.43
2019-04-05T11:44:41.574Z,10.20
2019-04-05T11:47:13.538Z,9.10
2019-04-05T11:49:48.311Z,9.80
2019-04-05T11:52:20.256Z,9.65
2019-04-05T11:54:52.355Z,9.97
2019-04-05T11:57:24.114Z,10.90
2019-04-05T11:59:55.914Z,11.53
2019-04-05T12:02:36.347Z,14.15
2019-04-05T12:05:09.123Z,13.57
2019-04-05T12:07:40.840Z,10.50
2019-04-05T12:10:13.176Z,9.97
2019-04-05T12:12:44.969Z,9.63
2019-04-05T12:15:17.153Z,9.68
2019-04-05T12:17:48.875Z,9.93
2019-04-05T12:20:20.838Z,10.32
2019-04-05T12:22:53.620Z,9.83
2019-04-05T12:25:25.418Z,14.93
2019-04-05T12:28:06.335Z,11.43
2019-04-05T12:30:31.251Z,10.57
2019-04-05T12:33:13.191Z,9.67
2019-04-05T12:35:37.712Z,11.53
2019-04-05T12:38:09.676Z,14.90
2019-04-05T12:40:41.426Z,12.60
2019-04-05T12:43:14.277Z,13.03
2019-04-05T12:45:46.221Z,10.57
2019-04-05T12:48:17.958Z,12.63
2019-04-05T12:51:00.552Z,12.93
2019-04-05T12:53:26.241Z,15.07
2019-04-05T12:55:57.092Z,12.50
2019-04-05T12:58:29.170Z,10.10
2019-04-05T13:01:00.895Z,13.03
2019-04-05T13:03:32.786Z,17.50
2019-04-05T13:06:04.788Z,9.97
2019-04-05T13:08:36.514Z,11.93
2019-04-05T13:11:08.332Z,12.77
2019-04-05T13:13:40.205Z,12.27
2019-04-05T13:16:12.151Z,10.20
2019-04-05T13:18:43.903Z,10.40
2019-04-05T13:21:16.654Z,10.13
2019-04-05T13:23:48.404Z,10.33
2019-04-05T13:26:20.115Z,10.50
2019-04-05T13:28:51.846Z,11.13
2019-04-05T13:31:23.573Z,10.70
2019-04-05T13:33:55.703Z,9.57
2019-04-05T13:36:27.374Z,10.33
2019-04-05T13:39:00.385Z,9.03
2019-04-05T13:41:34.099Z,11.17
2019-04-05T13:44:06.136Z,15.23
2019-04-05T13:46:39.117Z,15.33
2019-04-05T13:49:11.177Z,13.47
2019-04-05T13:51:43.959Z,14.30
2019-04-05T13:54:15.714Z,14.87
2019-04-05T13:56:47.640Z,14.03
2019-04-05T13:59:19.500Z,9.93
2019-04-05T14:01:51.603Z,9.43
2019-04-05T14:04:23.474Z,17.80
2019-04-05T14:06:55.356Z,15.33
2019-04-05T14:09:27.077Z,12.17
2019-04-05T14:11:58.863Z,11.33
2019-04-05T14:14:30.739Z,9.57
2019-04-05T14:17:02.523Z,10.47
2019-04-05T14:19:34.500Z,8.77
2019-04-05T14:22:08.984Z,9.33
2019-04-05T14:24:39.931Z,10.30
2019-04-05T14:27:11.807Z,9.10
2019-04-05T14:29:43.873Z,8.97
2019-04-05T14:32:21.301Z,9.60
2019-04-05T14:34:49.548Z,9.40
2019-04-05T14:37:24.812Z,9.57
2019-04-05T14:39:54.778Z,9.17
2019-04-05T14:42:29.671Z,8.77
2019-04-05T14:45:01.630Z,9.40
2019-04-05T14:47:33.707Z,9.57
2019-04-05T14:50:07.161Z,9.63
2019-04-05T14:52:40.117Z,10.53
2019-04-05T14:55:11.977Z,9.93
2019-04-05T14:57:43.772Z,10.93
2019-04-05T15:00:17.403Z,10.40
2019-04-05T15:02:49.424Z,9.73
2019-04-05T15:05:21.547Z,10.80
2019-04-05T15:07:54.971Z,11.30
2019-04-05T15:10:27.264Z,12.30
2019-04-05T15:13:00.383Z,10.53
2019-04-05T15:15:32.279Z,11.30
2019-04-05T15:18:04.005Z,11.63
2019-04-05T15:20:35.724Z,11.07
2019-04-05T15:23:09.529Z,10.57
2019-04-05T15:25:41.115Z,10.17
2019-04-05T15:28:12.943Z,11.33
2019-04-05T15:30:44.724Z,11.73
2019-04-05T15:33:16.439Z,10.87
2019-04-05T15:35:48.842Z,10.60
2019-04-05T15:38:20.856Z,11.17
2019-04-05T15:40:52.926Z,10.70
2019-04-05T15:43:24.649Z,10.60
2019-04-05T15:45:56.409Z,11.30
2019-04-05T15:48:28.344Z,12.03
2019-04-05T15:51:00.357Z,11.73
2019-04-05T15:53:32.674Z,10.83
2019-04-05T15:56:04.930Z,10.83
2019-04-05T15:58:37.672Z,10.53
2019-04-05T16:01:10.262Z,10.50
2019-04-05T16:03:42.127Z,10.57
2019-04-05T16:06:14.241Z,10.50
2019-04-05T16:08:46.053Z,10.50
2019-04-05T16:11:17.871Z,10.37
2019-04-05T16:13:49.636Z,10.67
2019-04-05T16:16:21.370Z,9.27
2019-04-05T16:18:53.469Z,10.13
2019-04-05T16:21:25.415Z,9.93
2019-04-05T16:23:57.217Z,10.43
2019-04-05T16:26:29.121Z,11.47
2019-04-05T16:29:01.248Z,9.97
2019-04-05T16:31:33.155Z,9.67
2019-04-05T16:34:04.859Z,10.73
2019-04-05T16:36:36.600Z,10.63
2019-04-05T16:39:13.393Z,10.67
2019-04-05T16:41:45.202Z,9.50
2019-04-05T16:44:16.961Z,10.60
2019-04-05T16:46:49.004Z,10.47
2019-04-05T16:49:21.050Z,9.77
2019-04-05T16:51:52.863Z,10.27
2019-04-05T16:54:24.898Z,10.48
2019-04-05T16:56:56.719Z,10.10
2019-04-05T16:59:28.504Z,12.87
2019-04-05T17:02:01.443Z,10.30
2019-04-05T17:04:33.260Z,10.13
2019-04-05T17:07:06.258Z,10.47
2019-04-05T17:09:38.048Z,9.97
2019-04-05T17:12:09.963Z,10.47
2019-04-05T17:14:42.352Z,11.60
2019-04-05T17:17:14.097Z,10.70
2019-04-05T17:19:45.878Z,11.57
2019-04-05T17:22:17.915Z,10.67
2019-04-05T17:24:49.971Z,11.33
2019-04-05T17:27:21.771Z,10.73
2019-04-05T17:29:53.508Z,12.30
2019-04-05T17:32:25.246Z,12.63
2019-04-05T17:34:56.999Z,11.10
2019-04-05T17:37:28.823Z,11.30
2019-04-05T17:40:00.816Z,12.87
2019-04-05T17:42:34.785Z,11.47
2019-04-05T17:45:07.667Z,11.10
2019-04-05T17:47:39.629Z,12.73
2019-04-05T17:53:13.187Z,10.50
2019-04-05T17:55:42.944Z,12.83
2019-04-05T17:58:15.518Z,12.47
2019-04-05T18:00:47.483Z,13.03
2019-04-05T18:03:19.274Z,12.10
2019-04-05T18:05:51.013Z,11.97
2019-04-05T18:08:23.091Z,11.90
2019-04-05T18:10:54.821Z,11.90
2019-04-05T18:13:26.549Z,13.08
2019-04-05T18:15:58.298Z,11.93
2019-04-05T18:18:30.042Z,11.53
2019-04-05T18:21:01.841Z,12.73
2019-04-05T18:23:33.569Z,12.33
2019-04-05T18:26:05.530Z,13.00
2019-04-05T18:28:37.354Z,13.10
2019-04-05T18:31:09.224Z,12.53
2019-04-05T18:33:41.043Z,10.80
2019-04-05T18:36:12.885Z,11.25
2019-04-05T18:38:45.271Z,10.77
2019-04-05T18:41:17.079Z,10.40
2019-04-05T18:43:49.192Z,10.03
2019-04-05T18:46:21.889Z,9.05
2019-04-05T18:48:53.622Z,9.53
2019-04-05T18:51:25.714Z,9.83
2019-04-05T18:53:58.104Z,9.20
2019-04-05T18:56:29.900Z,10.53
2019-04-05T18:59:01.886Z,10.17
2019-04-05T19:01:33.619Z,10.47
2019-04-05T19:04:05.786Z,11.10
2019-04-05T19:06:37.531Z,10.87
2019-04-05T19:09:11.906Z,10.90
2019-04-05T19:11:43.215Z,9.97
2019-04-05T19:14:14.944Z,9.80
2019-04-05T19:16:46.708Z,11.00
2019-04-05T19:19:18.812Z,11.05
2019-04-05T19:21:50.618Z,10.33
2019-04-05T19:24:22.371Z,9.88
2019-04-05T19:26:54.096Z,10.80
2019-04-05T19:29:26.805Z,10.78
2019-04-05T19:49:53.165Z,8.97
2019-04-05T19:52:25.957Z,9.90
2019-04-05T19:54:57.698Z,10.00
2019-04-05T19:57:29.695Z,10.48
2019-04-05T20:00:01.507Z,8.33
2019-04-05T20:02:33.347Z,8.83
2019-04-05T20:05:05.913Z,9.00
2019-04-05T20:07:37.649Z,8.33
2019-04-05T20:10:09.650Z,8.93
2019-04-05T20:12:41.405Z,9.37
2019-04-05T20:15:13.466Z,9.10
2019-04-05T20:17:45.283Z,9.30
2019-04-05T20:20:17.289Z,8.77
2019-04-05T20:22:49.016Z,9.77
2019-04-05T20:25:20.765Z,8.78
2019-04-05T20:27:52.512Z,11.68
2019-04-05T20:30:24.433Z,11.67
2019-04-05T20:32:56.186Z,11.50
2019-04-05T20:35:27.985Z,11.45
2019-04-05T20:37:59.741Z,11.07
2019-04-05T20:40:31.492Z,11.17
2019-04-05T20:43:03.221Z,10.80
2019-04-05T20:45:35.066Z,10.47
2019-04-05T20:48:06.943Z,9.43
2019-04-05T20:50:39.647Z,10.53
2019-04-05T20:53:11.512Z,11.60
2019-04-05T20:55:43.199Z,11.80
2019-04-05T20:58:14.939Z,11.37
2019-04-05T21:00:46.691Z,12.40
2019-04-05T21:03:18.715Z,11.68
2019-04-05T21:05:50.531Z,12.23
2019-04-05T21:08:22.341Z,11.57
2019-04-05T21:10:54.247Z,12.23
2019-04-05T21:13:26.137Z,15.50
2019-04-05T21:15:57.966Z,28.37
2019-04-05T21:18:29.917Z,27.10
2019-04-05T21:21:01.907Z,24.37
2019-04-05T21:23:33.802Z,20.80
2019-04-05T21:26:05.761Z,16.67
2019-04-05T21:28:37.563Z,15.27
2019-04-05T21:31:09.297Z,14.43
2019-04-05T21:33:42.063Z,14.43
2019-04-05T21:36:14.096Z,15.47
2019-04-05T21:38:45.890Z,14.73
2019-04-05T21:41:17.630Z,13.08
2019-04-05T21:43:49.364Z,13.10
2019-04-05T21:46:21.122Z,14.53
2019-04-05T21:48:52.849Z,14.03
2019-04-05T21:51:24.781Z,14.07
2019-04-05T21:53:56.740Z,13.97
2019-04-05T21:56:28.516Z,13.93
2019-04-05T21:59:00.259Z,14.63
2019-04-05T22:01:32.100Z,14.78
2019-04-05T22:04:04.593Z,14.57
2019-04-05T22:06:36.464Z,14.55
2019-04-05T22:09:10.126Z,14.57
2019-04-05T22:11:42.203Z,15.70
2019-04-05T22:14:14.009Z,16.77
2019-04-05T22:16:45.899Z,15.40
2019-04-05T22:19:17.616Z,16.43
2019-04-05T22:21:49.356Z,16.77
2019-04-05T22:24:21.102Z,16.12
2019-04-05T22:26:52.897Z,14.23
2019-04-05T22:29:26.211Z,14.00
2019-04-05T22:31:58.032Z,14.50
2019-04-05T22:34:29.730Z,15.20
2019-04-05T22:37:01.474Z,11.40
2019-04-05T22:39:33.371Z,11.93
2019-04-05T22:42:05.191Z,11.87
2019-04-05T22:44:38.964Z,12.37
2019-04-05T22:47:12.005Z,11.87
2019-04-05T22:49:43.801Z,11.73
2019-04-05T22:52:15.535Z,11.43
2019-04-05T22:54:47.256Z,11.20
2019-04-05T22:57:19.065Z,13.18
2019-04-05T22:59:50.875Z,13.60
2019-04-05T23:02:22.750Z,11.73
2019-04-05T23:04:54.498Z,13.63
2019-04-05T23:07:26.512Z,11.68
2019-04-05T23:09:58.318Z,11.23
2019-04-05T23:12:30.498Z,12.25
2019-04-05T23:15:02.218Z,12.10
2019-04-05T23:17:34.378Z,11.67
2019-04-05T23:20:07.095Z,12.63
2019-04-05T23:22:39.212Z,13.60
2019-04-05T23:25:21.502Z,15.80
2019-04-05T23:27:45.562Z,17.37
2019-04-05T23:30:18.907Z,15.80
2019-04-05T23:32:50.921Z,15.55
2019-04-05T23:35:22.656Z,14.90
2019-04-05T23:37:54.389Z,15.40
2019-04-05T23:40:26.518Z,15.35
2019-04-05T23:42:58.402Z,13.77
2019-04-05T23:45:30.105Z,13.77
2019-04-05T23:48:01.871Z,13.27
2019-04-05T23:50:33.610Z,14.07
2019-04-05T23:53:05.622Z,13.50
2019-04-05T23:55:37.373Z,14.83
2019-04-05T23:58:09.568Z,13.97
